TAF and METAR

METAR for Kayes Airport

GAKD 230900Z VRB02KT CAVOK 36/03 Q1010
Report created 23. mai 11:00
wind 2 knots from various directions Clear sky Temperature 36° with dewpoint at 3° (Humidity 12.79%) Pressure 1010 hPa
No TAF available for Kayes Airport
Kayes Airport in Mali

Latest 5 airports